createdAt,value
2022-11-03T04:56:23.204Z,11.88
2022-11-03T04:59:25.764Z,12.85
2022-11-03T05:02:27.815Z,15.80
2022-11-03T05:05:30.128Z,11.93
2022-11-03T05:08:32.244Z,9.57
2022-11-03T05:11:37.979Z,11.90
2022-11-03T05:14:40.012Z,10.93
2022-11-03T05:17:42.507Z,9.98
2022-11-03T05:20:50.185Z,12.40
2022-11-03T05:24:02.678Z,10.65
2022-11-03T05:27:11.155Z,11.95
2022-11-03T05:30:14.864Z,12.32
2022-11-03T05:33:27.293Z,11.82
2022-11-03T05:36:31.752Z,10.93
2022-11-03T05:39:40.480Z,10.00
2022-11-03T05:42:46.897Z,9.70
2022-11-03T05:45:52.722Z,13.90
2022-11-03T05:48:55.237Z,11.30
2022-11-03T05:51:57.480Z,10.25
2022-11-03T05:55:00.329Z,12.70
2022-11-03T05:58:19.792Z,12.13
2022-11-03T06:01:30.361Z,10.88
2022-11-03T06:04:40.462Z,12.68
2022-11-03T06:07:42.480Z,11.18
2022-11-03T06:10:56.820Z,11.40
2022-11-03T06:13:59.432Z,16.00
2022-11-03T06:17:19.790Z,11.00
2022-11-03T06:20:22.922Z,21.62
2022-11-03T06:23:25.280Z,13.68
2022-11-03T06:26:28.531Z,16.20
2022-11-03T06:29:33.337Z,16.02
2022-11-03T06:32:35.422Z,15.23
2022-11-03T06:35:37.771Z,14.80
2022-11-03T06:38:39.851Z,18.10
2022-11-03T06:41:42.127Z,13.77
2022-11-03T06:44:47.306Z,10.68
2022-11-03T06:47:50.953Z,15.30
2022-11-03T06:50:53.939Z,15.68
2022-11-03T06:54:00.283Z,12.37
2022-11-03T06:57:02.568Z,15.15
2022-11-03T07:00:35.134Z,14.55
2022-11-03T07:03:38.398Z,17.75
2022-11-03T07:06:42.106Z,14.23
2022-11-03T07:09:44.232Z,19.62
2022-11-03T07:12:46.648Z,12.77
2022-11-03T07:15:48.736Z,14.10
2022-11-03T07:18:51.092Z,16.83
2022-11-03T07:21:56.235Z,15.57
2022-11-03T07:25:03.648Z,13.15
2022-11-03T07:28:06.262Z,19.35
2022-11-03T07:31:20.430Z,18.20
2022-11-03T07:34:27.440Z,21.98
2022-11-03T07:37:29.741Z,28.15
2022-11-03T07:40:33.887Z,28.70
2022-11-03T07:43:38.218Z,25.23
2022-11-03T07:46:40.288Z,26.25
2022-11-03T07:49:42.660Z,22.62
2022-11-03T07:52:44.696Z,26.60
2022-11-03T07:55:47.653Z,28.98
2022-11-03T07:58:54.234Z,30.88
2022-11-03T08:01:58.542Z,27.95
2022-11-03T08:05:02.016Z,28.27
2022-11-03T08:08:04.355Z,28.83
2022-11-03T08:11:09.158Z,31.58
2022-11-03T08:14:11.609Z,28.20
2022-11-03T08:17:14.660Z,33.28
2022-11-03T08:20:16.764Z,30.62
2022-11-03T08:23:25.614Z,30.42
2022-11-03T08:26:28.863Z,30.77
2022-11-03T08:29:31.239Z,31.48
2022-11-03T08:32:33.342Z,31.90
2022-11-03T08:35:35.706Z,33.53
2022-11-03T08:38:38.080Z,29.80
2022-11-03T08:41:40.543Z,31.42
2022-11-03T08:44:42.628Z,30.67
2022-11-03T08:47:44.991Z,29.77
2022-11-03T08:50:48.256Z,33.47
2022-11-03T08:53:53.773Z,32.85
2022-11-03T08:56:55.821Z,34.03
2022-11-03T08:59:59.951Z,31.87
2022-11-03T09:03:02.661Z,33.38
2022-11-03T09:06:05.277Z,35.58
2022-11-03T09:12:29.781Z,31.83
2022-11-03T09:15:33.351Z,32.75
2022-11-03T09:18:35.678Z,32.78
2022-11-03T09:21:37.857Z,32.10
2022-11-03T09:24:40.241Z,33.47
2022-11-03T09:27:42.360Z,33.72
2022-11-03T09:30:44.685Z,32.10
2022-11-03T09:33:46.731Z,37.78
2022-11-03T09:36:53.125Z,38.95
2022-11-03T09:42:58.383Z,32.95
2022-11-03T09:46:00.432Z,37.28
2022-11-03T09:49:04.864Z,34.53
2022-11-03T09:52:06.937Z,35.92
2022-11-03T09:55:29.561Z,35.00
2022-11-03T09:58:33.174Z,33.78
2022-11-03T10:01:35.588Z,34.58
2022-11-03T10:04:38.336Z,33.00
2022-11-03T10:07:43.788Z,35.38
2022-11-03T10:10:46.117Z,33.33
2022-11-03T10:13:52.928Z,31.92
2022-11-03T10:17:01.816Z,33.55
2022-11-03T10:20:11.204Z,35.35
2022-11-03T10:23:13.509Z,38.35
2022-11-03T10:26:18.937Z,36.13
2022-11-03T10:29:26.440Z,32.97
2022-11-03T10:32:30.879Z,40.17
2022-11-03T10:35:35.086Z,36.97
2022-11-03T10:38:37.162Z,35.08
2022-11-03T10:41:56.494Z,36.08
2022-11-03T10:45:17.278Z,36.35
2022-11-03T10:48:19.607Z,40.12
2022-11-03T10:51:21.679Z,37.30
2022-11-03T10:54:25.029Z,36.75
2022-11-03T10:57:28.051Z,37.33
2022-11-03T11:00:30.380Z,38.65
2022-11-03T11:03:36.880Z,38.97
2022-11-03T11:06:40.940Z,35.70
2022-11-03T11:09:43.144Z,38.50
2022-11-03T11:13:07.368Z,34.88
2022-11-03T11:16:48.252Z,37.05
2022-11-03T11:20:18.373Z,34.42
2022-11-03T11:23:29.228Z,38.50
2022-11-03T11:26:33.540Z,39.63
2022-11-03T11:29:36.124Z,37.70
2022-11-03T11:32:44.485Z,33.75
2022-11-03T11:35:46.433Z,35.30
2022-11-03T11:38:48.661Z,34.70
2022-11-03T11:42:19.515Z,34.13
2022-11-03T11:46:00.218Z,40.88
2022-11-03T11:49:16.952Z,38.17
2022-11-03T11:52:19.450Z,40.28
2022-11-03T11:55:24.466Z,38.47
2022-11-03T11:58:30.272Z,37.35
2022-11-03T12:01:34.650Z,39.27
2022-11-03T12:04:37.160Z,36.25
2022-11-03T12:07:39.327Z,42.40
2022-11-03T12:10:52.707Z,41.30
2022-11-03T12:13:54.843Z,40.25
2022-11-03T12:16:59.351Z,39.80
2022-11-03T12:20:45.569Z,41.78
2022-11-03T12:23:47.938Z,43.45
2022-11-03T12:26:49.967Z,41.20
2022-11-03T12:29:53.880Z,39.88
2022-11-03T12:32:57.516Z,38.15
2022-11-03T12:35:59.806Z,48.33
2022-11-03T12:39:01.820Z,46.60
2022-11-03T12:42:05.585Z,41.83
2022-11-03T12:45:08.733Z,43.60
2022-11-03T12:48:11.264Z,42.25
2022-11-03T12:51:15.534Z,43.85
2022-11-03T12:54:17.958Z,48.85
2022-11-03T12:57:19.994Z,51.45
2022-11-03T13:00:22.456Z,49.35
2022-11-03T13:03:24.524Z,54.08
2022-11-03T13:06:26.843Z,56.22
2022-11-03T13:09:28.864Z,51.67
2022-11-03T13:12:31.178Z,46.10
2022-11-03T13:15:33.200Z,45.10
2022-11-03T13:18:35.712Z,49.00
2022-11-03T13:21:37.953Z,52.75
2022-11-03T13:24:40.700Z,50.35
2022-11-03T13:27:43.011Z,48.05
2022-11-03T13:30:45.352Z,44.75
2022-11-03T13:33:47.386Z,44.92
2022-11-03T13:36:49.857Z,41.60
2022-11-03T13:39:51.988Z,39.78
2022-11-03T13:42:54.268Z,38.00
2022-11-03T13:46:01.119Z,41.75
2022-11-03T13:52:25.512Z,39.63
2022-11-03T13:55:43.515Z,40.58
2022-11-03T14:05:32.230Z,34.72
2022-11-03T14:08:34.287Z,32.33
2022-11-03T14:11:55.287Z,33.45
2022-11-03T14:15:01.563Z,34.22
2022-11-03T14:18:03.991Z,35.83
2022-11-03T14:21:06.184Z,33.58
2022-11-03T14:24:08.637Z,34.70
2022-11-03T14:27:10.679Z,33.08
2022-11-03T14:30:13.539Z,33.03
2022-11-03T14:33:15.565Z,35.42
2022-11-03T14:36:17.853Z,32.08
2022-11-03T14:39:19.891Z,30.80
2022-11-03T14:42:22.320Z,29.02
2022-11-03T14:45:24.447Z,26.25
2022-11-03T14:48:27.089Z,31.92
2022-11-03T14:51:30.273Z,32.47
2022-11-03T14:54:32.857Z,37.83
2022-11-03T14:57:34.888Z,35.83
2022-11-03T15:00:37.164Z,35.22
2022-11-03T15:03:39.905Z,35.67
2022-11-03T15:06:42.445Z,36.17
2022-11-03T15:09:44.507Z,35.70
2022-11-03T15:12:46.827Z,33.13
2022-11-03T15:15:48.903Z,33.67
2022-11-03T15:18:51.407Z,33.38
2022-11-03T15:21:53.450Z,35.28
2022-11-03T15:28:13.399Z,32.17
2022-11-03T15:31:15.685Z,32.30
2022-11-03T15:34:18.053Z,30.00
2022-11-03T15:37:20.336Z,33.15
2022-11-03T15:40:22.358Z,29.98
2022-11-03T15:43:24.635Z,28.30
2022-11-03T15:46:26.752Z,31.65
2022-11-03T15:49:29.036Z,31.05
2022-11-03T15:52:31.100Z,33.85
2022-11-03T15:55:33.412Z,31.48
2022-11-03T15:58:35.473Z,32.90
2022-11-03T16:01:37.864Z,29.23
2022-11-03T16:04:40.224Z,30.50
2022-11-03T16:07:42.254Z,30.25
2022-11-03T16:10:50.716Z,33.92
2022-11-03T16:13:56.812Z,33.67
2022-11-03T16:16:59.519Z,36.17
2022-11-03T16:20:01.631Z,35.47
2022-11-03T16:23:04.068Z,36.05
2022-11-03T16:26:07.053Z,35.33
2022-11-03T16:29:09.363Z,36.90
2022-11-03T16:32:11.396Z,37.63
2022-11-03T16:35:13.735Z,38.38
2022-11-03T16:38:15.809Z,37.53
2022-11-03T16:41:18.123Z,36.35
2022-11-03T16:44:20.312Z,36.50
2022-11-03T16:47:22.608Z,39.30
2022-11-03T16:50:24.849Z,40.72
2022-11-03T16:53:27.115Z,45.15
2022-11-03T16:56:29.169Z,48.85
2022-11-03T16:59:31.481Z,42.22
2022-11-03T17:02:33.642Z,38.15
2022-11-03T17:05:36.005Z,42.75
